Terminal Aerodrome Forecast
Issued by NWS Albuquerque, NM

Home | Current Version | Previous Version | Text Only | Print | Product List | Glossary On
Versions: 1 2 3 4 5 6 7 8 9 10 11 12 13 14
000
FTUS45 KABQ 061133
TAFABQ
TAF
KABQ 061133Z 0612/0712 VRB06KT P6SM BKN120
     FM061900 33007KT P6SM FEW080 FEW150
     FM070000 06010KT P6SM VCTS SCT080CB BKN150
     FM070200 09020G32KT P6SM VCSH BKN080=

USA.gov is the U.S. government's official web portal to all federal, state and local government web resources and services.